createdAt,value
2023-02-16T00:02:48.067Z,61.78
2023-02-16T00:07:49.482Z,61.74
2023-02-16T00:13:07.470Z,62.31
2023-02-16T00:18:16.689Z,62.16
2023-02-16T00:23:16.382Z,62.18
2023-02-16T00:28:20.481Z,61.77
2023-02-16T00:33:19.790Z,61.84
2023-02-16T00:38:16.905Z,61.59
2023-02-16T00:43:28.190Z,61.83
2023-02-16T00:48:27.477Z,62.12
2023-02-16T00:53:24.742Z,62.44
2023-02-16T00:58:30.055Z,62.71
2023-02-16T01:03:32.545Z,62.00
2023-02-16T01:08:47.801Z,61.88
2023-02-16T01:13:47.959Z,62.00
2023-02-16T01:18:45.960Z,62.07
2023-02-16T01:23:46.063Z,62.03
2023-02-16T01:28:43.669Z,62.02
2023-02-16T01:33:44.630Z,61.99
2023-02-16T01:38:44.318Z,61.80
2023-02-16T01:43:48.477Z,61.66
2023-02-16T01:48:56.288Z,62.08
2023-02-16T01:54:09.640Z,62.13
2023-02-16T01:59:17.676Z,62.15
2023-02-16T02:04:42.272Z,61.81
2023-02-16T02:09:45.091Z,61.56
2023-02-16T02:14:45.308Z,61.77
2023-02-16T02:19:57.071Z,62.18
2023-02-16T02:25:24.222Z,62.51
2023-02-16T02:30:46.637Z,62.93
2023-02-16T02:35:51.365Z,62.80
2023-02-16T02:41:07.715Z,62.26
2023-02-16T02:46:13.069Z,62.76
2023-02-16T02:51:37.493Z,62.60
2023-02-16T02:57:08.768Z,62.68
2023-02-16T03:02:08.947Z,62.55
2023-02-16T03:07:11.121Z,62.34
2023-02-16T03:12:37.021Z,62.36
2023-02-16T03:17:56.213Z,62.25
2023-02-16T03:23:15.820Z,63.36
2023-02-16T03:28:40.613Z,64.20
2023-02-16T03:33:39.468Z,63.76
2023-02-16T03:38:39.233Z,63.89
2023-02-16T03:43:36.608Z,64.53
2023-02-16T03:48:33.812Z,65.21
2023-02-16T03:53:35.007Z,66.14
2023-02-16T03:58:34.195Z,67.38
2023-02-16T04:03:33.759Z,67.77
2023-02-16T04:08:34.948Z,67.54
2023-02-16T04:13:32.458Z,66.44
2023-02-16T04:18:29.990Z,66.47
2023-02-16T04:23:30.573Z,67.65
2023-02-16T04:28:28.641Z,68.41
2023-02-16T04:33:32.158Z,68.11
2023-02-16T04:38:38.473Z,67.16
2023-02-16T04:43:39.415Z,67.57
2023-02-16T04:48:37.230Z,66.70
2023-02-16T04:53:34.944Z,66.63
2023-02-16T04:58:33.544Z,67.21
2023-02-16T05:03:38.098Z,66.88
2023-02-16T05:08:58.725Z,67.28
2023-02-16T05:14:20.035Z,66.77
2023-02-16T05:19:52.426Z,67.44
2023-02-16T05:24:56.129Z,67.05
2023-02-16T05:30:05.983Z,67.29
2023-02-16T05:40:34.961Z,66.96
2023-02-16T05:51:57.586Z,66.56
2023-02-16T05:57:54.254Z,66.43
2023-02-16T06:03:40.823Z,65.79
2023-02-16T06:09:00.109Z,65.42
2023-02-16T06:14:06.095Z,65.57
2023-02-16T06:19:16.964Z,65.40
2023-02-16T06:24:26.091Z,65.75
2023-02-16T06:29:35.445Z,65.57
2023-02-16T06:34:54.880Z,66.07
2023-02-16T06:39:58.996Z,66.43
2023-02-16T06:45:02.984Z,66.93
2023-02-16T06:50:20.837Z,66.49
2023-02-16T06:55:45.748Z,66.86
2023-02-16T07:01:00.459Z,66.89
2023-02-16T07:06:37.055Z,66.97
2023-02-16T07:11:46.061Z,66.21
2023-02-16T07:17:11.835Z,66.40
2023-02-16T07:22:26.927Z,66.64
2023-02-16T07:27:54.626Z,65.89
2023-02-16T07:33:32.534Z,66.03
2023-02-16T07:39:35.100Z,64.96
2023-02-16T07:45:42.082Z,64.79
2023-02-16T07:51:33.851Z,64.54
2023-02-16T07:57:20.313Z,63.55
2023-02-16T08:02:36.003Z,62.04
2023-02-16T08:07:41.470Z,62.28
2023-02-16T08:12:46.891Z,62.17
2023-02-16T08:17:50.003Z,62.15
2023-02-16T08:22:55.176Z,60.92
2023-02-16T08:29:18.176Z,60.97
2023-02-16T08:34:43.212Z,60.88
2023-02-16T08:52:21.608Z,59.34
2023-02-16T08:58:31.174Z,58.94
2023-02-16T09:10:28.846Z,58.86
2023-02-16T09:16:10.373Z,58.40
2023-02-16T09:28:04.116Z,57.28
2023-02-16T09:33:27.357Z,57.45
2023-02-16T09:44:37.903Z,56.60
2023-02-16T09:50:06.269Z,56.16
2023-02-16T10:14:02.991Z,55.49
2023-02-16T10:19:32.392Z,54.90
2023-02-16T10:24:53.933Z,54.65
2023-02-16T10:30:13.000Z,53.89
2023-02-16T10:35:18.860Z,53.88
2023-02-16T10:45:58.736Z,53.73
2023-02-16T10:51:29.980Z,53.42
2023-02-16T10:56:57.973Z,53.15
2023-02-16T11:07:25.982Z,51.62
2023-02-16T11:12:31.349Z,52.06
2023-02-16T11:17:30.512Z,52.06
2023-02-16T11:22:49.195Z,50.67
2023-02-16T11:27:56.311Z,50.12
2023-02-16T11:33:26.130Z,50.08
2023-02-16T11:38:49.344Z,50.20
2023-02-16T11:44:20.972Z,49.85
2023-02-16T11:54:54.415Z,48.13
2023-02-16T12:07:04.313Z,46.89
2023-02-16T12:12:54.552Z,47.45
2023-02-16T12:18:19.550Z,46.72
2023-02-16T12:24:50.444Z,45.85
2023-02-16T12:31:21.745Z,45.64
2023-02-16T12:36:33.598Z,45.24
2023-02-16T12:42:17.476Z,45.56
2023-02-16T12:47:45.778Z,45.22
2023-02-16T12:53:16.431Z,45.05
2023-02-16T12:58:48.104Z,45.05
2023-02-16T13:11:45.989Z,44.16
2023-02-16T13:16:48.765Z,44.46
2023-02-16T13:22:31.494Z,44.32
2023-02-16T13:28:00.187Z,44.19
2023-02-16T13:33:42.496Z,44.11
2023-02-16T13:39:24.058Z,44.18
2023-02-16T13:44:36.327Z,44.60
2023-02-16T13:50:16.862Z,44.12
2023-02-16T13:55:39.495Z,44.21
2023-02-16T14:00:55.857Z,44.70
2023-02-16T14:05:55.531Z,45.05
2023-02-16T14:11:36.386Z,45.13
2023-02-16T14:18:39.953Z,45.45
2023-02-16T14:24:28.208Z,45.33
2023-02-16T14:29:56.776Z,45.42
2023-02-16T14:35:04.124Z,45.69
2023-02-16T14:40:22.487Z,46.09
2023-02-16T14:46:20.925Z,46.24
2023-02-16T14:52:17.334Z,46.06
2023-02-16T14:57:36.428Z,46.25
2023-02-16T15:03:48.546Z,46.63
2023-02-16T15:09:13.975Z,46.65
2023-02-16T15:20:45.721Z,46.93
2023-02-16T15:26:57.696Z,47.51
2023-02-16T15:40:02.944Z,47.82
2023-02-16T15:46:00.827Z,48.30
2023-02-16T15:52:13.637Z,48.79
2023-02-16T16:04:15.181Z,49.57
2023-02-16T16:15:21.972Z,49.96
2023-02-16T16:20:36.281Z,50.34
2023-02-16T16:38:04.725Z,51.41
2023-02-16T16:50:13.840Z,52.27
2023-02-16T17:15:48.754Z,53.23
2023-02-16T17:40:53.915Z,54.00
2023-02-16T17:46:58.253Z,54.14
2023-02-16T17:52:45.224Z,54.31
2023-02-16T18:05:01.642Z,55.10
2023-02-16T18:10:54.249Z,54.68
2023-02-16T18:17:17.430Z,54.78
2023-02-16T18:23:05.173Z,54.80
2023-02-16T18:28:09.136Z,55.87
2023-02-16T18:33:29.338Z,54.97
2023-02-16T18:38:50.514Z,55.59
2023-02-16T18:44:26.269Z,55.53
2023-02-16T18:49:55.638Z,55.95
2023-02-16T18:54:57.316Z,56.08
2023-02-16T19:00:00.829Z,56.40
2023-02-16T19:05:00.764Z,56.57
2023-02-16T19:10:06.435Z,56.91
2023-02-16T19:15:20.597Z,57.14
2023-02-16T19:20:49.029Z,57.15
2023-02-16T19:25:50.969Z,57.35
2023-02-16T19:30:49.933Z,57.42
2023-02-16T19:36:13.969Z,58.00
2023-02-16T19:41:33.032Z,57.80
2023-02-16T19:46:34.388Z,57.64
2023-02-16T19:51:36.583Z,58.21
2023-02-16T19:56:40.150Z,58.16
2023-02-16T20:02:00.607Z,57.92
2023-02-16T20:07:08.443Z,58.14
2023-02-16T20:12:31.135Z,58.84
2023-02-16T20:17:30.659Z,58.20
2023-02-16T20:22:37.135Z,58.83
2023-02-16T20:27:38.619Z,58.63
2023-02-16T20:32:48.182Z,59.42
2023-02-16T20:37:51.537Z,59.14
2023-02-16T20:42:52.089Z,59.42
2023-02-16T20:47:55.495Z,59.63
2023-02-16T20:52:58.991Z,59.76
2023-02-16T20:57:57.962Z,59.98
2023-02-16T21:02:58.112Z,59.97
2023-02-16T21:07:56.835Z,59.84
2023-02-16T21:12:58.816Z,59.82
2023-02-16T21:18:06.072Z,60.03
2023-02-16T21:23:06.969Z,60.29
2023-02-16T21:28:07.824Z,59.99
2023-02-16T21:33:16.364Z,60.36
2023-02-16T21:38:17.339Z,60.06
2023-02-16T21:43:23.493Z,60.14
2023-02-16T21:48:41.455Z,60.39
2023-02-16T21:53:41.393Z,60.27
2023-02-16T21:58:40.582Z,60.46
2023-02-16T22:03:42.046Z,60.44
2023-02-16T22:08:44.346Z,60.21
2023-02-16T22:13:41.755Z,60.10
2023-02-16T22:18:40.429Z,60.32
2023-02-16T22:23:39.377Z,60.59
2023-02-16T22:28:37.230Z,61.01
2023-02-16T22:33:38.069Z,60.49
2023-02-16T22:38:35.426Z,60.83
2023-02-16T22:43:34.640Z,60.71
2023-02-16T22:48:31.828Z,60.81
2023-02-16T22:53:29.824Z,60.96
2023-02-16T22:58:29.999Z,60.88
2023-02-16T23:03:29.463Z,60.87
2023-02-16T23:08:35.321Z,60.63
2023-02-16T23:13:37.017Z,61.10
2023-02-16T23:18:36.508Z,60.65
2023-02-16T23:23:36.186Z,61.06
2023-02-16T23:28:33.861Z,60.92
2023-02-16T23:33:40.078Z,61.33
2023-02-16T23:38:46.395Z,61.48
2023-02-16T23:43:45.589Z,61.54
2023-02-16T23:48:43.574Z,61.39
2023-02-16T23:53:41.077Z,61.37
2023-02-16T23:58:44.552Z,61.01
